Relevés horaires St-Hubert (Belgique)


Relevés horaires à St-Hubert - Jeudi 26 Avr. 2018
Heure UTC1 Température [°C] Vent [km/h] Hum. [%] Pres.4 [hPa] Visi. [Km] Nébu. [octa] Préc.5 [mm] Cond.
2m. Res. Ros. Dir.2 Vit. Moy. Raf.3
23:00 3.5 3.5 0.5 SSE 1.9 1.9 1.9 81 1019.4(-0.9/3h) 40 0/8 -- --
22:00 3.1 3.1 0.4 SSE 1.9 1.9 1.9 82 1019.8(-0.2/3h) 40 0/8 -- --
21:00 3.9 3.9 0.2 SO 1.9 5.6 63.0 77 1019.9(0.2/3h) 35 0/8 -- --
20:00 5.4 5.4 1.2 SO 1.9 3.7 5.6 74 1019.9(0.5/3h) 35 0/8 -- --
19:00 7.0 7.0 2.0 O 3.7 5.6 63.0 70 1019.1(0.0/3h) 40 0/8 -- --
18:00 8.0 7.3 1.4 O 5.6 13.0 27.8 63 1018.7(-0.6/3h) 40 0/8 0/12h
Ciel clair
17:00 8.2 7 0.1 O 7.4 11.1 20.4 57 1018.7(-1.0/3h) 35 0/8 -- --
16:00 9.0 8 3.7 O 7.4 7.4 16.7 69 1018.6(-0.5/3h) 30 0/8 -- --
15:00 6.9 5.5 0.8 O 7.4 13.0 27.8 65 1019.6(0.1/3h) -- 0/8 -- --
14:00 7.0 5.6 1.9 SO 7.4 13.0 20.4 70 1020(0.3/3h) 40 0/8 -- Ciel clair
13:00 8.6 6.8 2.0 OSO 11.1 11.1 20.4 63 1019.2(0.0/3h) 24 0/8 -- --
12:00 8.8 7.7 0.8 OSO 7.4 11.1 20.4 57 1019.1(0.1/3h) 30 0/8 0/6h
--
11:00 8.2 6.6 1.4 OSO 9.3 11.1 18.5 62 1019.3(0.7/3h) 27 0/8 -- --
10:00 8.1 6.5 2.1 OSO 9.3 9.3 16.7 66 1019.3(0.9/3h) 27 1/8 -- --
09:00 6.7 5.3 1.5 OSO 7.4 9.3 20.4 69 1019.5(1.3/3h) 23 3/8 -- --
08:00 5.8 4.2 1.4 O 7.4 9.3 20.4 73 1019.2(1.2/3h) 21 1/8 -- --
07:00 5.1 2.9 2.0 O 9.3 9.3 16.7 80 1019(1.3/3h) 23 1/8 -- --
06:00 4.8 3.1 2.2 O 7.4 9.3 14.8 83 1018.6(1.0/3h) 23 3/8 0/12h
--
05:00 4.5 2.7 2.5 OSO 7.4 7.4 14.8 87 1018.2(0.7/3h) 22 1/8 -- Ciel clair
04:00 4.3 3.1 2.6 OSO 5.6 7.4 14.8 89 1017.8(0.3/3h) 21 1/8 -- --
03:00 4.2 2.4 2.6 OSO 7.4 7.4 14.8 89 1017.6(-0.1/3h) 21 6/8 -- --
02:00 4.6 3.4 2.7 OSO 5.6 7.4 13.0 87 1017.3(-0.2/3h) 20 2/8 -- --
01:00 4.3 3.1 2.3 OSO 5.6 7.4 11.1 87 1017.5(0.1/3h) 22 1/8 -- --
00:00 4.6 2.8 2.2 OSO 7.4 11.1 16.7 84 1017.7(0.3/3h) 30 4/8 0/6h
0/24h
--

1 Coordinated Universal Time. Actuellement il est 13:00 locale et 11:00 UTC.

2 Le vent souffle depuis la direction indiquée vers la direction oposée.

3 Les rafales max. sont disponible 40 min après l'heure du relevé.

4 Pour les stations d'altitude (plus de 600m) le géopotentiel du niveau le plus proche de la pression obligatoire est indiqué.

5 Les stations disposant d'un diffuseur peuvent indiquer "trace". Cela signifie que des précipitations ont touchés le sol mais que la quantité est inférieure à 0.1 mm.

Récapitulatif de la journée
Température [°C] Vent [km/h] Ensoleillement4 [h] Precipitations totale5 [mm] Pression [Hpa]
Min1 Max.2 Moy.3 Max. Min Max.
3.7 10.4 8.5 63.0 0 h 0 min 0 1017.3 1020.0

1 Température minimale relevée entre 18:00 UTC la veille et 18:00 UTC le jour donné.

2 Température maximale relevée entre 06:00 UTC le jour donné et 06:00 UTC le lendemain.

3 Vent moyen de la journée basé sur les relevés horaires.

4 Ensoleillement en heures relevé entre 06:00 UTC la veille et 06:00 UTC le jour donné.

5 Précipitations totales tombées entre 06:00 UTC la jour donné et 06:00 UTC le lendemain.

Graphiques horaires